createdAt,value
2022-09-23T00:00:44.018Z,62.78
2022-09-23T00:01:44.048Z,64.65
2022-09-23T00:02:43.980Z,63.39
2022-09-23T00:03:43.970Z,63.00
2022-09-23T00:04:43.954Z,63.68
2022-09-23T00:05:43.966Z,64.07
2022-09-23T00:06:43.966Z,61.58
2022-09-23T00:07:43.927Z,63.74
2022-09-23T00:08:43.995Z,60.82
2022-09-23T00:09:43.927Z,59.38
2022-09-23T00:10:43.914Z,62.26
2022-09-23T00:11:43.908Z,61.62
2022-09-23T00:12:43.928Z,61.55
2022-09-23T00:13:43.886Z,60.36
2022-09-23T00:14:43.892Z,61.58
2022-09-23T00:15:43.888Z,61.30
2022-09-23T00:16:44.015Z,65.00
2022-09-23T00:17:43.861Z,63.42
2022-09-23T00:18:43.869Z,64.34
2022-09-23T00:19:43.869Z,63.39
2022-09-23T00:20:43.831Z,60.04
2022-09-23T00:21:43.833Z,63.73
2022-09-23T00:22:43.825Z,64.14
2022-09-23T00:23:43.816Z,62.09
2022-09-23T00:24:43.858Z,61.09
2022-09-23T00:25:43.828Z,61.07
2022-09-23T00:26:43.805Z,60.35
2022-09-23T00:27:43.795Z,61.39
2022-09-23T00:28:43.790Z,62.77
2022-09-23T00:29:43.766Z,64.85
2022-09-23T00:30:43.825Z,62.93
2022-09-23T00:31:43.757Z,62.88
2022-09-23T00:32:43.741Z,63.33
2022-09-23T00:33:43.736Z,59.80
2022-09-23T00:34:43.730Z,61.94
2022-09-23T00:35:43.746Z,64.79
2022-09-23T00:36:43.721Z,64.41
2022-09-23T00:37:43.719Z,62.67
2022-09-23T00:38:43.758Z,62.85
2022-09-23T00:39:43.730Z,62.19
2022-09-23T00:40:43.727Z,63.30
2022-09-23T00:41:43.703Z,63.14
2022-09-23T00:42:43.682Z,62.94
2022-09-23T00:43:43.655Z,61.37
2022-09-23T00:44:43.651Z,62.17
2022-09-23T00:45:43.677Z,63.01
2022-09-23T00:46:43.646Z,62.95
2022-09-23T00:47:43.644Z,60.93
2022-09-23T00:48:43.627Z,58.61
2022-09-23T00:49:43.623Z,61.68
2022-09-23T00:50:43.635Z,58.69
2022-09-23T00:51:43.615Z,61.11
2022-09-23T00:52:43.602Z,60.48
2022-09-23T00:53:43.618Z,61.45
2022-09-23T00:54:43.592Z,58.78
2022-09-23T00:55:43.563Z,60.57
2022-09-23T00:56:43.558Z,64.59
2022-09-23T00:57:43.558Z,60.61
2022-09-23T00:58:43.543Z,61.15
2022-09-23T00:59:43.552Z,61.83
2022-09-23T01:00:43.526Z,61.99
2022-09-23T01:01:43.579Z,61.81
2022-09-23T01:02:43.546Z,62.27
2022-09-23T01:03:43.542Z,62.24
2022-09-23T01:04:43.512Z,60.61
2022-09-23T01:05:43.496Z,62.84
2022-09-23T01:06:43.499Z,59.51
2022-09-23T01:07:43.494Z,60.83
2022-09-23T01:08:43.472Z,62.77
2022-09-23T01:09:43.483Z,59.80
2022-09-23T01:10:43.484Z,62.62
2022-09-23T01:11:43.458Z,61.67
2022-09-23T01:12:43.432Z,60.05
2022-09-23T01:13:43.444Z,62.96
2022-09-23T01:14:43.427Z,59.65
2022-09-23T01:15:43.454Z,63.19
2022-09-23T01:16:43.467Z,57.03
2022-09-23T01:17:43.402Z,61.06
2022-09-23T01:18:43.396Z,65.56
2022-09-23T01:19:43.401Z,61.45
2022-09-23T01:20:43.410Z,60.51
2022-09-23T01:21:43.385Z,64.91
2022-09-23T01:22:43.362Z,61.60
2022-09-23T01:23:43.370Z,62.16
2022-09-23T01:24:43.350Z,60.67
2022-09-23T01:25:43.365Z,64.37
2022-09-23T01:26:43.372Z,59.39
2022-09-23T01:27:43.353Z,58.33
2022-09-23T01:28:43.321Z,64.25
2022-09-23T01:29:46.199Z,62.63
2022-09-23T01:30:52.629Z,63.27
2022-09-23T01:31:43.295Z,60.96
2022-09-23T01:32:43.312Z,64.61
2022-09-23T01:33:43.284Z,61.51
2022-09-23T01:34:43.276Z,60.82
2022-09-23T01:35:43.278Z,67.52
2022-09-23T01:36:43.259Z,58.26
2022-09-23T01:37:43.288Z,60.50
2022-09-23T01:38:43.316Z,63.90
2022-09-23T01:39:43.236Z,62.43
2022-09-23T01:40:43.289Z,64.10
2022-09-23T01:41:43.225Z,61.51
2022-09-23T01:42:43.240Z,63.52
2022-09-23T01:43:43.221Z,60.28
2022-09-23T01:44:43.233Z,64.10
2022-09-23T01:45:43.204Z,62.45
2022-09-23T01:46:43.227Z,62.55
2022-09-23T01:47:43.191Z,61.73
2022-09-23T01:48:43.260Z,61.03
2022-09-23T01:49:43.166Z,58.97
2022-09-23T01:50:43.155Z,62.74
2022-09-23T01:51:43.174Z,63.32
2022-09-23T01:52:43.145Z,60.15
2022-09-23T01:53:43.126Z,58.21
2022-09-23T01:54:43.120Z,63.06
2022-09-23T01:55:43.116Z,62.22
2022-09-23T01:56:43.133Z,59.70
2022-09-23T01:57:43.126Z,59.72
2022-09-23T01:58:43.095Z,59.65
2022-09-23T01:59:43.096Z,62.18
2022-09-23T02:00:43.085Z,61.10
2022-09-23T02:01:43.144Z,58.85
2022-09-23T02:02:43.131Z,59.34
2022-09-23T02:03:43.082Z,60.46
2022-09-23T02:04:43.039Z,64.71
2022-09-23T02:05:43.072Z,62.95
2022-09-23T02:06:43.034Z,62.70
2022-09-23T02:07:43.019Z,62.19
2022-09-23T02:08:43.026Z,59.99
2022-09-23T02:09:43.034Z,62.16
2022-09-23T02:10:43.013Z,63.25
2022-09-23T02:11:43.013Z,60.32
2022-09-23T02:12:42.989Z,61.52
2022-09-23T02:13:43.011Z,60.94
2022-09-23T02:14:42.989Z,63.08
2022-09-23T02:15:43.001Z,63.35
2022-09-23T02:16:43.070Z,62.27
2022-09-23T02:17:42.949Z,62.72
2022-09-23T02:18:42.965Z,64.99
2022-09-23T02:19:42.930Z,63.27
2022-09-23T02:20:42.922Z,65.68
2022-09-23T02:21:42.936Z,64.38
2022-09-23T02:22:42.919Z,62.48
2022-09-23T02:23:42.916Z,62.77
2022-09-23T02:24:42.894Z,57.62
2022-09-23T02:25:42.879Z,62.95
2022-09-23T02:26:42.877Z,65.50
2022-09-23T02:27:42.879Z,62.37
2022-09-23T02:28:42.860Z,61.36
2022-09-23T02:29:42.887Z,58.96
2022-09-23T02:30:42.855Z,62.09
2022-09-23T02:31:42.918Z,64.37
2022-09-23T02:32:42.834Z,60.64
2022-09-23T02:33:42.832Z,62.43
2022-09-23T02:34:42.905Z,62.66
2022-09-23T02:35:42.809Z,60.39
2022-09-23T02:36:42.846Z,64.59
2022-09-23T02:37:42.782Z,62.92
2022-09-23T02:38:42.784Z,64.00
2022-09-23T02:39:42.769Z,65.01
2022-09-23T02:40:42.832Z,59.08
2022-09-23T02:41:42.776Z,61.67
2022-09-23T02:42:42.781Z,62.69
2022-09-23T02:43:42.745Z,65.80
2022-09-23T02:44:42.735Z,66.77
2022-09-23T02:45:42.749Z,62.88
2022-09-23T02:46:42.728Z,64.51
2022-09-23T02:47:42.742Z,64.64
2022-09-23T02:48:42.708Z,63.58
2022-09-23T02:49:42.703Z,62.87
2022-09-23T02:50:42.733Z,61.76
2022-09-23T02:51:42.685Z,61.73
2022-09-23T02:52:42.716Z,63.48
2022-09-23T02:53:42.685Z,61.59
2022-09-23T02:54:42.678Z,59.71
2022-09-23T02:55:42.668Z,62.00
2022-09-23T02:56:42.662Z,64.77
2022-09-23T02:57:42.691Z,58.23
2022-09-23T02:58:42.640Z,60.97
2022-09-23T02:59:42.628Z,63.83
2022-09-23T03:00:42.627Z,62.43
2022-09-23T03:01:42.602Z,63.64
2022-09-23T03:02:42.695Z,65.06
2022-09-23T03:03:42.600Z,64.44
2022-09-23T03:04:42.613Z,64.96
2022-09-23T03:05:42.577Z,61.25
2022-09-23T03:06:42.568Z,64.44
2022-09-23T03:07:42.569Z,62.86
2022-09-23T03:08:42.593Z,60.00
2022-09-23T03:09:42.562Z,64.81
2022-09-23T03:10:42.557Z,64.60
2022-09-23T03:11:42.556Z,63.75
2022-09-23T03:12:42.538Z,61.94
2022-09-23T03:13:42.530Z,65.86
2022-09-23T03:14:42.537Z,63.29
2022-09-23T03:15:42.503Z,64.17
2022-09-23T03:16:42.559Z,63.19
2022-09-23T03:17:42.485Z,67.09
2022-09-23T03:18:42.489Z,63.58
2022-09-23T03:19:42.473Z,63.14
2022-09-23T03:20:42.485Z,62.47
2022-09-23T03:21:42.458Z,64.39
2022-09-23T03:22:42.445Z,65.88
2022-09-23T03:23:42.460Z,63.06
2022-09-23T03:24:42.439Z,67.15
2022-09-23T03:25:42.442Z,65.05
2022-09-23T03:26:42.453Z,65.26
2022-09-23T03:27:42.519Z,63.31
2022-09-23T03:28:42.429Z,63.52
2022-09-23T03:29:42.400Z,64.47
2022-09-23T03:30:42.400Z,61.78
2022-09-23T03:31:42.593Z,61.48
2022-09-23T03:32:42.402Z,59.82
2022-09-23T03:33:42.416Z,62.15
2022-09-23T03:34:42.350Z,62.16
2022-09-23T03:35:42.364Z,62.87
2022-09-23T03:36:42.345Z,63.13
2022-09-23T03:37:42.333Z,63.98
2022-09-23T03:38:42.327Z,63.06
2022-09-23T03:39:42.338Z,64.02
2022-09-23T03:40:42.382Z,64.73
2022-09-23T03:41:42.305Z,61.94
2022-09-23T03:42:42.305Z,62.78
2022-09-23T03:43:42.300Z,64.70
2022-09-23T03:44:42.308Z,63.41
2022-09-23T03:45:42.327Z,61.78
2022-09-23T03:46:42.267Z,62.91
2022-09-23T03:47:42.270Z,64.86
2022-09-23T03:48:42.265Z,63.95
2022-09-23T03:49:42.272Z,60.18
2022-09-23T03:50:42.266Z,63.26
2022-09-23T03:51:44.638Z,63.13
2022-09-23T03:52:42.237Z,65.64
2022-09-23T03:53:42.217Z,63.83
2022-09-23T03:54:42.222Z,63.68
2022-09-23T03:55:42.242Z,66.56
2022-09-23T03:56:42.202Z,67.07
2022-09-23T03:57:42.192Z,68.21
2022-09-23T03:58:42.191Z,65.88
2022-09-23T03:59:42.181Z,67.51
2022-09-23T04:00:42.204Z,64.99
2022-09-23T04:01:42.218Z,66.03
2022-09-23T04:02:42.171Z,64.84
2022-09-23T04:03:42.142Z,62.02
2022-09-23T04:04:42.140Z,62.61
2022-09-23T04:05:42.144Z,65.26
2022-09-23T04:06:42.130Z,67.10
2022-09-23T04:07:42.163Z,64.90
2022-09-23T04:08:42.142Z,67.55
2022-09-23T04:09:42.106Z,65.57
2022-09-23T04:10:42.091Z,64.07
2022-09-23T04:11:42.103Z,64.96
2022-09-23T04:12:42.115Z,67.64
2022-09-23T04:13:42.088Z,68.86
2022-09-23T04:14:42.061Z,65.13
2022-09-23T04:15:42.057Z,64.88
2022-09-23T04:16:42.105Z,66.10
2022-09-23T04:17:42.040Z,63.38
2022-09-23T04:18:42.031Z,67.16
2022-09-23T04:19:42.034Z,63.45
2022-09-23T04:20:42.011Z,67.13
2022-09-23T04:21:42.003Z,64.77
2022-09-23T04:22:42.068Z,65.04
2022-09-23T04:23:41.987Z,65.68
2022-09-23T04:24:42.003Z,64.60
2022-09-23T04:25:41.969Z,65.80
2022-09-23T04:26:41.962Z,64.91
2022-09-23T04:27:41.971Z,65.53
2022-09-23T04:28:41.956Z,66.31
2022-09-23T04:29:41.943Z,64.82
2022-09-23T04:30:41.957Z,66.92
2022-09-23T04:31:42.006Z,63.92
2022-09-23T04:32:41.942Z,66.78
2022-09-23T04:33:41.907Z,66.51
2022-09-23T04:34:41.957Z,67.39
2022-09-23T04:35:41.898Z,66.23
2022-09-23T04:36:41.893Z,65.97
2022-09-23T04:37:41.877Z,64.48
2022-09-23T04:38:41.975Z,65.34
2022-09-23T04:39:41.866Z,65.14
2022-09-23T04:40:41.998Z,67.25
2022-09-23T04:41:41.858Z,65.96
2022-09-23T04:42:41.835Z,66.08
2022-09-23T04:43:41.847Z,65.51
2022-09-23T04:44:41.942Z,64.70
2022-09-23T04:45:41.811Z,62.56
2022-09-23T04:46:41.890Z,65.50
2022-09-23T04:47:41.827Z,65.62
2022-09-23T04:48:41.795Z,65.68
2022-09-23T04:49:41.791Z,64.61
2022-09-23T04:50:41.793Z,65.81
2022-09-23T04:51:41.759Z,63.10
2022-09-23T04:52:41.778Z,64.10
2022-09-23T04:53:41.769Z,67.78
2022-09-23T04:54:41.765Z,66.28
2022-09-23T04:55:41.745Z,67.23
2022-09-23T04:56:41.771Z,66.23
2022-09-23T04:57:41.757Z,64.85
2022-09-23T04:58:41.719Z,65.89
2022-09-23T04:59:41.723Z,65.17
2022-09-23T05:00:41.793Z,67.51
2022-09-23T05:01:41.865Z,68.48
2022-09-23T05:02:41.718Z,67.22
2022-09-23T05:03:41.680Z,66.82
2022-09-23T05:04:41.698Z,64.69
2022-09-23T05:05:41.659Z,65.68
2022-09-23T05:06:41.707Z,64.35
2022-09-23T05:07:41.652Z,67.46
2022-09-23T05:08:41.636Z,65.09
2022-09-23T05:09:41.627Z,66.27
2022-09-23T05:10:41.650Z,65.92
2022-09-23T05:11:41.625Z,67.54
2022-09-23T05:12:41.608Z,65.70
2022-09-23T05:13:41.594Z,66.44
2022-09-23T05:14:41.593Z,66.59
2022-09-23T05:15:41.609Z,67.53
2022-09-23T05:16:41.660Z,64.11
2022-09-23T05:17:41.565Z,65.12
2022-09-23T05:18:41.562Z,65.34
2022-09-23T05:19:41.567Z,66.98
2022-09-23T05:20:41.550Z,66.72
2022-09-23T05:21:41.614Z,66.16
2022-09-23T05:22:41.575Z,66.40
2022-09-23T05:23:41.513Z,68.25
2022-09-23T05:24:41.521Z,66.30
2022-09-23T05:25:41.496Z,65.98
2022-09-23T05:26:41.499Z,65.12
2022-09-23T05:27:41.514Z,66.23
2022-09-23T05:28:41.481Z,64.78
2022-09-23T05:29:41.578Z,67.15
2022-09-23T05:30:41.470Z,63.63
2022-09-23T05:31:41.498Z,67.73
2022-09-23T05:32:41.451Z,66.87
2022-09-23T05:33:42.121Z,65.17
2022-09-23T05:34:41.432Z,65.93
2022-09-23T05:35:41.450Z,68.57
2022-09-23T05:36:41.420Z,68.37
2022-09-23T05:37:41.410Z,67.58
2022-09-23T05:38:41.396Z,67.31
2022-09-23T05:39:41.390Z,68.25
2022-09-23T05:40:41.460Z,64.50
2022-09-23T05:41:41.397Z,67.92
2022-09-23T05:42:41.369Z,66.03
2022-09-23T05:43:41.416Z,66.29
2022-09-23T05:44:41.398Z,65.75
2022-09-23T05:45:41.338Z,68.22
2022-09-23T05:46:41.489Z,65.79
2022-09-23T05:47:41.342Z,64.61
2022-09-23T05:48:41.328Z,67.11
2022-09-23T05:49:58.609Z,67.02
2022-09-23T05:50:42.311Z,64.13
2022-09-23T05:51:41.511Z,64.65
2022-09-23T05:52:41.313Z,67.66
2022-09-23T05:53:41.283Z,67.79
2022-09-23T05:54:41.293Z,65.05
2022-09-23T05:55:41.291Z,65.82
2022-09-23T05:56:41.259Z,69.21
2022-09-23T05:57:41.270Z,64.80
2022-09-23T05:58:41.240Z,65.98
2022-09-23T05:59:41.309Z,68.31
2022-09-23T06:00:41.248Z,64.93
2022-09-23T06:01:41.276Z,66.64
2022-09-23T06:02:41.271Z,65.06
2022-09-23T06:03:41.208Z,65.31
2022-09-23T06:04:41.223Z,64.45
2022-09-23T06:05:41.190Z,64.35
2022-09-23T06:06:41.208Z,64.13
2022-09-23T06:07:41.184Z,66.38
2022-09-23T06:08:41.162Z,65.73
2022-09-23T06:09:41.171Z,63.64
2022-09-23T06:10:41.155Z,67.14
2022-09-23T06:11:41.160Z,65.58
2022-09-23T06:12:41.127Z,65.32
2022-09-23T06:13:41.128Z,66.56
2022-09-23T06:14:41.118Z,66.21
2022-09-23T06:15:41.145Z,65.87
2022-09-23T06:16:41.104Z,66.01
2022-09-23T06:17:41.121Z,64.76
2022-09-23T06:18:41.089Z,65.60
2022-09-23T06:19:41.133Z,66.24
2022-09-23T06:20:41.072Z,67.89
2022-09-23T06:21:41.093Z,63.07
2022-09-23T06:22:41.117Z,65.53
2022-09-23T06:23:41.996Z,66.34
2022-09-23T06:24:41.052Z,67.10
2022-09-23T06:25:41.050Z,67.46
2022-09-23T06:26:41.034Z,67.81
2022-09-23T06:27:41.025Z,67.27
2022-09-23T06:28:41.045Z,65.62
2022-09-23T06:29:41.043Z,68.18
2022-09-23T06:30:40.996Z,67.33
2022-09-23T06:31:41.255Z,67.29
2022-09-23T06:32:41.039Z,66.33
2022-09-23T06:33:41.012Z,67.59
2022-09-23T06:34:50.924Z,67.27
2022-09-23T06:35:49.850Z,69.55
2022-09-23T06:36:44.825Z,64.64
2022-09-23T06:37:40.961Z,66.18
2022-09-23T06:38:40.958Z,63.51
2022-09-23T06:39:40.957Z,68.56
2022-09-23T06:40:40.946Z,67.13
2022-09-23T06:41:40.930Z,64.59
2022-09-23T06:42:40.903Z,65.60
2022-09-23T06:43:41.641Z,66.48
2022-09-23T06:44:40.887Z,64.90
2022-09-23T06:45:40.999Z,68.79
2022-09-23T06:46:40.909Z,66.02
2022-09-23T06:47:40.866Z,64.96
2022-09-23T06:48:45.913Z,65.84
2022-09-23T06:49:41.846Z,68.26
2022-09-23T06:50:40.864Z,67.99
2022-09-23T06:51:40.872Z,67.82
2022-09-23T06:52:40.878Z,68.16
2022-09-23T06:53:40.843Z,66.58
2022-09-23T06:54:40.822Z,64.72
2022-09-23T06:55:40.809Z,68.13
2022-09-23T06:56:40.823Z,68.45
2022-09-23T06:57:40.819Z,68.70
2022-09-23T06:58:40.785Z,64.89
2022-09-23T06:59:40.796Z,68.17
2022-09-23T07:00:40.797Z,67.59
2022-09-23T07:01:40.862Z,67.92
2022-09-23T07:02:40.905Z,64.47
2022-09-23T07:03:40.787Z,67.29
2022-09-23T07:04:40.758Z,68.66
2022-09-23T07:05:40.743Z,67.48
2022-09-23T07:06:40.729Z,66.30
2022-09-23T07:07:40.741Z,65.34
2022-09-23T07:08:40.706Z,66.41
2022-09-23T07:09:40.953Z,66.68
2022-09-23T07:10:40.691Z,66.33
2022-09-23T07:11:40.854Z,66.35
2022-09-23T07:12:40.688Z,66.09
2022-09-23T07:13:40.690Z,65.96
2022-09-23T07:14:40.669Z,66.82
2022-09-23T07:15:40.713Z,67.59
2022-09-23T07:16:40.653Z,67.36
2022-09-23T07:17:40.639Z,66.87
2022-09-23T07:18:40.733Z,66.40
2022-09-23T07:19:40.661Z,64.33
2022-09-23T07:20:40.610Z,68.24
2022-09-23T07:21:40.675Z,65.06
2022-09-23T07:22:40.600Z,67.46
2022-09-23T07:23:40.584Z,66.69
2022-09-23T07:24:40.601Z,65.92
2022-09-23T07:25:40.593Z,65.84
2022-09-23T07:26:45.495Z,67.16
2022-09-23T07:27:41.555Z,66.67
2022-09-23T07:28:40.553Z,67.26
2022-09-23T07:29:48.139Z,68.51
2022-09-23T07:30:53.655Z,69.16
2022-09-23T07:31:41.549Z,66.20
2022-09-23T07:34:53.341Z,66.11
2022-09-23T07:35:53.353Z,67.37
2022-09-23T07:36:53.297Z,66.47
2022-09-23T07:37:53.287Z,67.14
2022-09-23T07:38:53.276Z,64.92
2022-09-23T07:39:53.277Z,65.48
2022-09-23T07:40:53.391Z,62.28
2022-09-23T07:41:53.300Z,67.10
2022-09-23T07:42:53.255Z,65.95
2022-09-23T07:43:53.287Z,68.55
2022-09-23T07:44:53.236Z,65.73
2022-09-23T07:45:53.269Z,66.48
2022-09-23T07:46:53.264Z,67.68
2022-09-23T07:47:53.426Z,67.12
2022-09-23T07:48:53.348Z,68.42
2022-09-23T07:49:56.145Z,68.12
2022-09-23T07:50:53.190Z,65.52
2022-09-23T07:51:53.177Z,66.80
2022-09-23T07:52:53.185Z,66.23
2022-09-23T07:54:01.730Z,68.16
2022-09-23T07:54:53.159Z,66.57
2022-09-23T07:55:53.748Z,68.29
2022-09-23T07:56:53.233Z,66.13
2022-09-23T07:57:53.822Z,67.55
2022-09-23T07:58:53.139Z,66.89
2022-09-23T07:59:53.118Z,69.01
2022-09-23T08:00:53.101Z,67.07
2022-09-23T08:01:53.244Z,65.86
2022-09-23T08:02:53.318Z,66.18
2022-09-23T08:03:53.180Z,66.04
2022-09-23T08:04:54.151Z,67.47
2022-09-23T08:05:53.060Z,66.22
2022-09-23T08:06:53.057Z,65.60
2022-09-23T08:07:53.159Z,65.03
2022-09-23T08:09:00.051Z,65.62
2022-09-23T08:09:54.056Z,65.44
2022-09-23T08:10:53.023Z,65.28
2022-09-23T08:11:53.251Z,64.01
2022-09-23T08:12:53.055Z,67.97
2022-09-23T08:13:53.027Z,67.80
2022-09-23T08:14:52.994Z,68.56
2022-09-23T08:15:55.544Z,65.81
2022-09-23T08:16:52.993Z,61.82
2022-09-23T08:17:53.057Z,64.86
2022-09-23T08:18:53.832Z,65.32
2022-09-23T08:19:52.941Z,66.40
2022-09-23T08:20:52.981Z,64.00
2022-09-23T08:21:52.939Z,66.53
2022-09-23T08:22:53.139Z,65.48
2022-09-23T08:23:52.945Z,65.06
2022-09-23T08:24:55.649Z,61.54
2022-09-23T08:25:53.167Z,65.35
2022-09-23T08:26:52.918Z,64.07
2022-09-23T08:27:52.892Z,65.76
2022-09-23T08:28:52.881Z,62.15
2022-09-23T08:29:52.871Z,66.33
2022-09-23T08:30:52.900Z,65.13
2022-09-23T08:31:53.926Z,65.09
2022-09-23T08:32:52.858Z,63.97
2022-09-23T08:33:52.841Z,62.67
2022-09-23T08:34:52.840Z,64.65
2022-09-23T08:35:52.821Z,64.85
2022-09-23T08:36:52.812Z,65.67
2022-09-23T08:37:52.835Z,63.77
2022-09-23T08:38:52.861Z,64.14
2022-09-23T08:39:52.824Z,64.82
2022-09-23T08:40:52.800Z,63.47
2022-09-23T08:41:57.501Z,61.43
2022-09-23T08:42:53.770Z,63.43
2022-09-23T08:43:52.765Z,62.75
2022-09-23T08:44:52.755Z,62.69
2022-09-23T08:45:52.842Z,61.39
2022-09-23T08:46:52.758Z,59.05
2022-09-23T08:47:56.353Z,61.31
2022-09-23T08:48:52.744Z,60.98
2022-09-23T08:49:52.721Z,61.25
2022-09-23T08:50:52.707Z,58.12
2022-09-23T08:51:52.716Z,61.29
2022-09-23T08:52:52.705Z,58.52
2022-09-23T08:53:52.707Z,62.81
2022-09-23T08:54:55.454Z,62.12
2022-09-23T08:55:52.757Z,60.70
2022-09-23T08:56:52.662Z,62.22
2022-09-23T08:58:14.045Z,61.34
2022-09-23T08:58:53.632Z,60.47
2022-09-23T08:59:54.024Z,61.79
2022-09-23T09:00:52.650Z,60.47
2022-09-23T09:01:52.797Z,61.70
2022-09-23T09:02:53.189Z,62.83
2022-09-23T09:03:52.610Z,61.03
2022-09-23T09:04:52.597Z,61.05
2022-09-23T09:05:54.614Z,60.98
2022-09-23T09:06:54.331Z,61.93
2022-09-23T09:07:52.565Z,61.70
2022-09-23T09:08:52.592Z,59.65
2022-09-23T09:09:52.543Z,60.09
2022-09-23T09:10:52.537Z,61.33
2022-09-23T09:11:52.612Z,60.78
2022-09-23T09:12:52.523Z,61.65
2022-09-23T09:13:52.509Z,62.19
2022-09-23T09:14:52.498Z,63.11
2022-09-23T09:15:55.222Z,62.30
2022-09-23T09:17:00.671Z,61.18
2022-09-23T09:17:53.510Z,61.72
2022-09-23T09:18:52.485Z,63.22
2022-09-23T09:19:52.490Z,62.95
2022-09-23T09:20:52.479Z,63.03
2022-09-23T09:21:52.466Z,63.02
2022-09-23T09:22:52.480Z,59.12
2022-09-23T09:23:52.466Z,61.76
2022-09-23T09:24:52.429Z,61.73
2022-09-23T09:25:52.431Z,61.27
2022-09-23T09:26:52.418Z,62.05
2022-09-23T09:27:52.442Z,62.30
2022-09-23T09:28:52.414Z,61.81
2022-09-23T09:29:52.387Z,60.98
2022-09-23T09:30:52.456Z,63.11
2022-09-23T09:31:52.446Z,62.79
2022-09-23T09:32:52.364Z,61.30
2022-09-23T09:33:52.416Z,63.04
2022-09-23T09:34:52.382Z,63.61
2022-09-23T09:35:52.345Z,60.08
2022-09-23T09:36:53.194Z,60.65
2022-09-23T09:37:53.520Z,63.40
2022-09-23T09:38:52.352Z,62.22
2022-09-23T09:39:52.325Z,62.37
2022-09-23T09:40:52.400Z,60.60
2022-09-23T09:41:52.303Z,63.37
2022-09-23T09:42:52.315Z,62.34
2022-09-23T09:43:52.285Z,60.28
2022-09-23T09:44:52.319Z,59.41
2022-09-23T09:45:56.763Z,59.58
2022-09-23T09:46:53.371Z,61.98
2022-09-23T09:47:52.249Z,60.64
2022-09-23T09:48:52.274Z,61.48
2022-09-23T09:49:52.302Z,62.85
2022-09-23T09:50:52.287Z,61.16
2022-09-23T09:51:52.239Z,61.90
2022-09-23T09:52:52.162Z,61.26
2022-09-23T09:53:52.172Z,63.06
2022-09-23T09:54:52.164Z,60.84
2022-09-23T09:55:52.142Z,60.70
2022-09-23T09:56:52.144Z,60.51
2022-09-23T09:57:52.130Z,59.37
2022-09-23T09:58:52.116Z,57.59
2022-09-23T09:59:52.163Z,60.71
2022-09-23T10:00:52.111Z,59.18
2022-09-23T10:01:52.139Z,59.05
2022-09-23T10:02:52.132Z,59.75
2022-09-23T10:03:55.505Z,58.85
2022-09-23T10:04:53.153Z,58.65
2022-09-23T10:05:52.075Z,57.26
2022-09-23T10:06:52.062Z,59.46
2022-09-23T10:07:52.063Z,59.83
2022-09-23T10:08:52.044Z,61.74
2022-09-23T10:09:52.049Z,60.48
2022-09-23T10:10:52.056Z,57.98
2022-09-23T10:11:52.022Z,58.27
2022-09-23T10:12:52.017Z,57.15
2022-09-23T10:13:52.182Z,59.90
2022-09-23T10:14:52.002Z,59.59
2022-09-23T10:15:51.992Z,60.05
2022-09-23T10:16:52.037Z,61.08
2022-09-23T10:17:51.966Z,58.85
2022-09-23T10:18:51.969Z,62.43
2022-09-23T10:19:51.958Z,60.68
2022-09-23T10:20:51.966Z,60.97
2022-09-23T10:21:51.986Z,60.19
2022-09-23T10:22:51.947Z,58.57
2022-09-23T10:23:51.943Z,60.38
2022-09-23T10:24:51.987Z,59.48
2022-09-23T10:25:51.908Z,60.76
2022-09-23T10:26:51.992Z,59.49
2022-09-23T10:27:51.929Z,58.92
2022-09-23T10:28:51.954Z,60.51
2022-09-23T10:29:51.862Z,59.56
2022-09-23T10:30:51.894Z,60.16
2022-09-23T10:31:51.857Z,61.25
2022-09-23T10:32:51.847Z,61.59
2022-09-23T10:33:51.865Z,62.01
2022-09-23T10:34:51.899Z,60.90
2022-09-23T10:35:51.822Z,61.95
2022-09-23T10:36:51.825Z,63.03
2022-09-23T10:37:51.850Z,60.19
2022-09-23T10:38:51.820Z,61.14
2022-09-23T10:39:51.903Z,60.33
2022-09-23T10:40:51.973Z,62.35
2022-09-23T10:41:51.792Z,61.54
2022-09-23T10:42:51.792Z,62.16
2022-09-23T10:43:51.807Z,62.56
2022-09-23T10:44:51.779Z,61.68
2022-09-23T10:45:51.808Z,61.42
2022-09-23T10:46:51.805Z,60.05
2022-09-23T10:47:51.778Z,61.45
2022-09-23T10:48:51.757Z,59.66
2022-09-23T10:49:51.722Z,59.43
2022-09-23T10:50:51.730Z,61.58
2022-09-23T10:51:51.727Z,60.08
2022-09-23T10:52:51.726Z,60.54
2022-09-23T10:53:51.701Z,61.49
2022-09-23T10:54:51.683Z,61.46
2022-09-23T10:55:51.678Z,61.01
2022-09-23T10:56:51.743Z,61.36
2022-09-23T10:57:51.674Z,60.08
2022-09-23T10:58:51.686Z,61.74
2022-09-23T10:59:51.671Z,61.57
2022-09-23T11:00:51.645Z,62.64
2022-09-23T11:01:51.707Z,62.08
2022-09-23T11:02:51.666Z,61.31
2022-09-23T11:03:51.649Z,62.48
2022-09-23T11:04:51.697Z,62.57
2022-09-23T11:05:51.614Z,60.38
2022-09-23T11:06:51.650Z,61.34
2022-09-23T11:07:51.598Z,60.06
2022-09-23T11:08:51.687Z,58.53
2022-09-23T11:09:51.612Z,61.03
2022-09-23T11:10:51.576Z,59.73
2022-09-23T11:11:51.565Z,59.95
2022-09-23T11:12:51.568Z,63.12
2022-09-23T11:13:54.371Z,61.93
2022-09-23T11:14:51.616Z,61.35
2022-09-23T11:15:51.580Z,61.53
2022-09-23T11:16:51.606Z,60.26
2022-09-23T11:17:51.530Z,62.04
2022-09-23T11:18:51.518Z,59.80
2022-09-23T11:19:51.515Z,61.38
2022-09-23T11:20:51.526Z,61.53
2022-09-23T11:21:51.524Z,61.88
2022-09-23T11:22:51.487Z,58.43
2022-09-23T11:23:51.600Z,60.64
2022-09-23T11:24:51.502Z,60.37
2022-09-23T11:25:51.499Z,61.27
2022-09-23T11:26:51.502Z,60.91
2022-09-23T11:27:51.460Z,60.81
2022-09-23T11:28:51.466Z,58.51
2022-09-23T11:29:51.455Z,60.50
2022-09-23T11:30:51.508Z,60.93
2022-09-23T11:31:54.065Z,61.42
2022-09-23T11:32:51.524Z,60.85
2022-09-23T11:33:51.417Z,61.18
2022-09-23T11:34:54.318Z,61.19
2022-09-23T11:35:51.400Z,59.62
2022-09-23T11:36:51.399Z,57.80
2022-09-23T11:37:51.412Z,60.00
2022-09-23T11:38:51.815Z,61.02
2022-09-23T11:39:51.383Z,60.88
2022-09-23T11:40:51.417Z,58.21
2022-09-23T11:41:51.402Z,61.02
2022-09-23T11:42:51.361Z,61.96
2022-09-23T11:43:51.802Z,62.75
2022-09-23T11:44:51.385Z,59.92
2022-09-23T11:45:51.384Z,62.19
2022-09-23T11:46:51.338Z,61.44
2022-09-23T11:47:51.388Z,60.29
2022-09-23T11:48:51.320Z,61.44
2022-09-23T11:49:51.285Z,59.44
2022-09-23T11:50:51.324Z,61.10
2022-09-23T11:51:51.273Z,60.13
2022-09-23T11:52:51.283Z,60.47
2022-09-23T11:53:51.286Z,58.44
2022-09-23T11:54:51.278Z,61.00
2022-09-23T11:55:57.266Z,61.15
2022-09-23T11:56:52.250Z,61.03
2022-09-23T11:57:52.216Z,60.86
2022-09-23T11:58:55.065Z,60.70
2022-09-23T11:59:52.258Z,62.12
2022-09-23T12:00:55.944Z,60.03
2022-09-23T12:01:52.241Z,58.74
2022-09-23T12:03:02.927Z,60.88
2022-09-23T12:03:52.332Z,62.15
2022-09-23T12:04:57.605Z,61.03
2022-09-23T12:05:52.296Z,61.82
2022-09-23T12:06:51.183Z,60.55
2022-09-23T12:07:51.178Z,59.64
2022-09-23T12:08:51.171Z,61.10
2022-09-23T12:09:58.870Z,62.29
2022-09-23T12:10:52.145Z,61.21
2022-09-23T12:11:51.131Z,63.04
2022-09-23T12:12:51.126Z,60.97
2022-09-23T12:13:51.125Z,61.87
2022-09-23T12:14:51.124Z,60.74
2022-09-23T12:15:51.098Z,62.22
2022-09-23T12:16:51.148Z,61.05
2022-09-23T12:17:51.100Z,62.39
2022-09-23T12:18:51.088Z,61.67
2022-09-23T12:19:51.072Z,61.48
2022-09-23T12:20:51.166Z,63.03
2022-09-23T12:21:51.640Z,59.56
2022-09-23T12:22:51.073Z,61.10
2022-09-23T12:23:51.049Z,60.60
2022-09-23T12:24:51.038Z,62.69
2022-09-23T12:25:51.037Z,60.80
2022-09-23T12:26:51.044Z,62.72
2022-09-23T12:27:51.004Z,60.55
2022-09-23T12:28:51.009Z,60.91
2022-09-23T12:29:50.990Z,60.03
2022-09-23T12:30:51.030Z,61.25
2022-09-23T12:31:51.001Z,60.47
2022-09-23T12:32:50.990Z,61.05
2022-09-23T12:33:51.017Z,61.78
2022-09-23T12:34:50.953Z,62.04
2022-09-23T12:35:50.947Z,61.85
2022-09-23T12:36:50.941Z,61.95
2022-09-23T12:37:50.931Z,60.32
2022-09-23T12:38:50.963Z,61.89
2022-09-23T12:39:50.919Z,60.28
2022-09-23T12:40:50.964Z,60.18
2022-09-23T12:41:50.911Z,61.46
2022-09-23T12:42:50.894Z,59.75
2022-09-23T12:43:50.904Z,62.03
2022-09-23T12:44:50.894Z,60.56
2022-09-23T12:45:50.945Z,61.76
2022-09-23T12:46:50.869Z,60.57
2022-09-23T12:47:50.843Z,59.96
2022-09-23T12:48:50.856Z,58.35
2022-09-23T12:49:50.880Z,59.47
2022-09-23T12:50:50.846Z,60.23
2022-09-23T12:51:50.822Z,60.63
2022-09-23T12:52:50.816Z,61.65
2022-09-23T12:53:50.829Z,61.24
2022-09-23T12:54:50.804Z,63.87